createdAt,value
2022-09-21T00:01:09.839Z,4.75
2022-09-21T00:06:07.764Z,6.15
2022-09-21T00:11:01.107Z,5.20
2022-09-21T00:15:56.466Z,5.15
2022-09-21T00:20:50.519Z,8.75
2022-09-21T00:25:44.036Z,7.65
2022-09-21T00:30:39.057Z,7.43
2022-09-21T00:35:41.144Z,5.35
2022-09-21T00:40:35.112Z,5.95
2022-09-21T00:45:29.410Z,4.55
2022-09-21T00:50:25.283Z,4.95
2022-09-21T00:55:27.242Z,3.45
2022-09-21T01:00:26.545Z,20.75
2022-09-21T01:05:20.149Z,7.65
2022-09-21T01:10:17.266Z,4.70
2022-09-21T01:15:19.886Z,9.35
2022-09-21T01:20:28.128Z,5.75
2022-09-21T01:25:48.138Z,7.32
2022-09-21T01:30:44.656Z,7.80
2022-09-21T01:35:48.269Z,7.38
2022-09-21T01:40:46.616Z,6.50
2022-09-21T01:45:43.722Z,3.90
2022-09-21T01:50:41.463Z,5.35
2022-09-21T01:55:41.283Z,8.02
2022-09-21T02:00:36.463Z,4.38
2022-09-21T02:05:31.289Z,5.00
2022-09-21T02:10:31.197Z,7.38
2022-09-21T02:15:44.440Z,4.88
2022-09-21T02:20:50.543Z,5.82
2022-09-21T02:26:07.664Z,6.32
2022-09-21T02:31:21.203Z,4.05
2022-09-21T02:36:23.445Z,7.95
2022-09-21T02:41:35.095Z,8.40
2022-09-21T02:46:34.781Z,6.50
2022-09-21T02:51:34.803Z,7.00
2022-09-21T02:56:28.780Z,7.93
2022-09-21T03:01:23.207Z,8.32
2022-09-21T03:06:20.846Z,7.90
2022-09-21T03:11:17.519Z,7.72
2022-09-21T03:16:10.924Z,7.55
2022-09-21T03:21:05.296Z,6.53
2022-09-21T03:25:59.676Z,4.97
2022-09-21T03:30:53.335Z,8.90
2022-09-21T03:35:48.882Z,6.35
2022-09-21T03:40:42.164Z,5.57
2022-09-21T03:45:35.982Z,8.02
2022-09-21T03:50:30.707Z,5.35
2022-09-21T03:55:24.500Z,8.75
2022-09-21T04:00:18.963Z,7.05
2022-09-21T04:05:15.497Z,5.30
2022-09-21T04:10:13.763Z,10.75
2022-09-21T04:15:11.634Z,16.73
2022-09-21T04:20:05.358Z,7.10
2022-09-21T04:24:59.152Z,11.02
2022-09-21T04:29:53.244Z,17.48
2022-09-21T04:34:47.989Z,11.77
2022-09-21T04:39:41.999Z,15.05
2022-09-21T04:44:36.371Z,10.27
2022-09-21T04:49:30.033Z,7.70
2022-09-21T04:54:24.600Z,6.05
2022-09-21T04:59:18.560Z,12.02
2022-09-21T05:04:14.191Z,5.75
2022-09-21T05:09:26.485Z,8.50
2022-09-21T05:14:20.416Z,7.00
2022-09-21T05:19:15.526Z,6.82
2022-09-21T05:24:11.284Z,9.85
2022-09-21T05:29:06.522Z,5.00
2022-09-21T05:34:10.232Z,6.70
2022-09-21T05:39:03.811Z,7.03
2022-09-21T05:43:59.415Z,16.55
2022-09-21T05:49:21.684Z,9.27
2022-09-21T05:54:29.771Z,12.02
2022-09-21T06:00:02.576Z,14.88
2022-09-21T06:05:09.651Z,23.17
2022-09-21T06:10:03.224Z,23.55
2022-09-21T06:14:57.649Z,35.67
2022-09-21T06:19:52.084Z,37.95
2022-09-21T06:24:46.354Z,26.60
2022-09-21T06:29:39.543Z,23.15
2022-09-21T06:34:33.491Z,24.95
2022-09-21T06:39:27.475Z,26.73
2022-09-21T06:44:21.539Z,28.40
2022-09-21T06:49:15.823Z,25.08
2022-09-21T06:54:10.096Z,24.98
2022-09-21T06:59:04.295Z,27.83
2022-09-21T07:03:57.591Z,28.90
2022-09-21T07:14:07.993Z,50.58
2022-09-21T07:19:10.285Z,35.95
2022-09-21T07:24:11.012Z,26.95
2022-09-21T07:29:06.009Z,14.95
2022-09-21T07:33:59.690Z,12.52
2022-09-21T07:38:54.521Z,8.35
2022-09-21T07:43:48.793Z,5.22
2022-09-21T07:48:41.885Z,6.93
2022-09-21T07:53:36.824Z,3.15
2022-09-21T07:58:49.360Z,8.52
2022-09-21T08:03:42.763Z,6.63
2022-09-21T08:08:36.536Z,6.32
2022-09-21T08:13:30.227Z,2.17
2022-09-21T08:18:24.374Z,3.58
2022-09-21T08:23:19.012Z,3.22
2022-09-21T08:28:12.782Z,3.70
2022-09-21T08:33:07.921Z,4.22
2022-09-21T08:38:01.141Z,7.38
2022-09-21T08:42:57.942Z,3.63
2022-09-21T08:47:54.555Z,2.50
2022-09-21T08:52:48.058Z,3.25
2022-09-21T08:57:41.840Z,1.80
2022-09-21T09:03:04.101Z,5.55
2022-09-21T09:08:11.775Z,4.57
2022-09-21T09:13:20.847Z,7.28
2022-09-21T09:18:20.284Z,5.50
2022-09-21T09:23:19.264Z,2.45
2022-09-21T09:28:22.151Z,5.50
2022-09-21T09:33:27.675Z,3.97
2022-09-21T09:38:34.195Z,1.55
2022-09-21T09:43:30.479Z,7.70
2022-09-21T09:48:54.017Z,4.60
2022-09-21T09:53:48.559Z,1.67
2022-09-21T09:58:54.206Z,5.78
2022-09-21T10:04:25.933Z,3.72
2022-09-21T10:09:21.215Z,4.47
2022-09-21T10:14:19.181Z,3.03
2022-09-21T10:19:20.178Z,2.50
2022-09-21T10:24:33.838Z,3.38
2022-09-21T10:29:30.482Z,1.98
2022-09-21T10:34:23.771Z,2.83
2022-09-21T10:39:28.710Z,3.95
2022-09-21T10:44:23.946Z,2.83
2022-09-21T10:50:02.963Z,1.73
2022-09-21T10:54:57.872Z,1.10
2022-09-21T10:59:51.687Z,2.78
2022-09-21T11:04:50.295Z,4.28
2022-09-21T11:10:11.756Z,9.73
2022-09-21T11:15:39.972Z,2.03
2022-09-21T11:20:48.404Z,5.88
2022-09-21T11:25:43.964Z,4.15
2022-09-21T11:31:00.209Z,7.07
2022-09-21T11:41:25.584Z,4.43
2022-09-21T11:46:41.510Z,2.67
2022-09-21T11:52:01.836Z,7.40
2022-09-21T11:57:19.508Z,3.58
2022-09-21T12:02:41.631Z,3.50
2022-09-21T12:07:53.282Z,4.13
2022-09-21T12:12:51.983Z,2.15
2022-09-21T12:17:45.732Z,4.43
2022-09-21T12:22:43.432Z,2.70
2022-09-21T12:27:47.768Z,5.35
2022-09-21T12:33:09.903Z,3.03
2022-09-21T12:38:57.044Z,4.30
2022-09-21T12:43:55.727Z,3.33
2022-09-21T12:48:48.757Z,7.88
2022-09-21T12:53:50.838Z,3.85
2022-09-21T12:58:51.808Z,5.68
2022-09-21T13:04:13.047Z,6.03
2022-09-21T13:09:09.969Z,1.70
2022-09-21T13:14:10.164Z,3.45
2022-09-21T13:19:14.019Z,2.40
2022-09-21T13:24:23.279Z,2.22
2022-09-21T13:29:19.528Z,1.85
2022-09-21T13:34:40.087Z,4.45
2022-09-21T13:39:34.027Z,11.85
2022-09-21T13:45:05.074Z,1.20
2022-09-21T13:50:00.839Z,6.05
2022-09-21T13:54:57.967Z,4.15
2022-09-21T14:00:12.972Z,4.67
2022-09-21T14:05:41.867Z,5.15
2022-09-21T14:10:38.571Z,5.40
2022-09-21T14:15:33.615Z,6.68
2022-09-21T14:20:30.775Z,1.75
2022-09-21T14:25:29.234Z,4.33
2022-09-21T14:30:32.894Z,2.97
2022-09-21T14:35:33.330Z,2.13
2022-09-21T14:40:36.214Z,1.67
2022-09-21T14:45:48.017Z,4.57
2022-09-21T14:50:50.672Z,4.30
2022-09-21T14:55:47.618Z,0.50
2022-09-21T15:00:44.134Z,11.45
2022-09-21T15:05:41.560Z,1.85
2022-09-21T15:11:09.986Z,0.90
2022-09-21T15:16:29.991Z,5.13
2022-09-21T15:21:45.622Z,4.50
2022-09-21T15:26:41.213Z,1.13
2022-09-21T15:31:40.268Z,1.08
2022-09-21T15:36:35.314Z,5.22
2022-09-21T15:41:43.923Z,1.13
2022-09-21T15:46:37.931Z,4.10
2022-09-21T15:51:40.432Z,4.53
2022-09-21T15:56:37.032Z,0.88
2022-09-21T16:01:32.104Z,1.80
2022-09-21T16:06:31.505Z,1.98
2022-09-21T16:11:27.652Z,1.40
2022-09-21T16:16:20.882Z,1.25
2022-09-21T16:21:40.794Z,1.00
2022-09-21T16:26:38.464Z,0.77
2022-09-21T16:31:34.836Z,2.42
2022-09-21T16:36:36.535Z,4.43
2022-09-21T16:41:35.806Z,1.70
2022-09-21T16:46:30.157Z,1.63
2022-09-21T16:51:28.216Z,5.00
2022-09-21T16:56:23.120Z,0.57
2022-09-21T17:01:21.699Z,2.88
2022-09-21T17:06:22.260Z,1.73
2022-09-21T17:11:21.964Z,3.28
2022-09-21T17:16:20.160Z,2.42
2022-09-21T17:21:17.394Z,3.25
2022-09-21T17:26:32.354Z,2.42
2022-09-21T17:31:26.362Z,4.97
2022-09-21T17:36:19.663Z,5.70
2022-09-21T17:41:27.703Z,2.50
2022-09-21T17:46:55.860Z,4.25
2022-09-21T17:52:07.923Z,2.78
2022-09-21T17:57:04.748Z,3.75
2022-09-21T18:02:00.767Z,3.42
2022-09-21T18:06:56.836Z,5.85
2022-09-21T18:12:16.495Z,5.57
2022-09-21T18:17:43.652Z,5.15
2022-09-21T18:23:01.199Z,3.67
2022-09-21T18:28:33.231Z,4.32
2022-09-21T18:33:40.444Z,3.30
2022-09-21T18:38:42.546Z,4.07
2022-09-21T18:43:54.844Z,8.45
2022-09-21T18:49:02.870Z,5.10
2022-09-21T18:53:58.470Z,4.25
2022-09-21T18:58:52.980Z,1.83
2022-09-21T19:03:47.867Z,3.92
2022-09-21T19:09:00.915Z,1.98
2022-09-21T19:14:19.010Z,3.97
2022-09-21T19:19:45.555Z,1.60
2022-09-21T19:25:20.291Z,3.60
2022-09-21T19:30:16.665Z,3.75
2022-09-21T19:35:21.415Z,6.47
2022-09-21T19:40:20.000Z,4.00
2022-09-21T19:45:19.702Z,4.53
2022-09-21T19:50:12.364Z,5.55
2022-09-21T19:55:27.219Z,5.93
2022-09-21T20:00:21.878Z,4.60
2022-09-21T20:05:31.414Z,5.55
2022-09-21T20:10:33.426Z,7.38
2022-09-21T20:15:33.060Z,3.88
2022-09-21T20:20:27.135Z,6.68
2022-09-21T20:25:33.488Z,4.20
2022-09-21T20:30:33.405Z,1.67
2022-09-21T20:35:29.522Z,33.70
2022-09-21T20:40:26.695Z,2.97
2022-09-21T20:45:20.269Z,2.30
2022-09-21T20:50:14.550Z,3.33
2022-09-21T20:55:10.660Z,5.00
2022-09-21T21:00:11.776Z,2.00
2022-09-21T21:05:06.385Z,7.93
2022-09-21T21:10:00.738Z,5.75
2022-09-21T21:14:55.547Z,2.33
2022-09-21T21:19:49.808Z,2.55
2022-09-21T21:24:45.007Z,3.15
2022-09-21T21:29:38.829Z,4.53
2022-09-21T21:34:35.714Z,3.65
2022-09-21T21:39:29.596Z,6.30
2022-09-21T21:44:28.865Z,1.05
2022-09-21T21:54:22.989Z,3.85
2022-09-21T21:59:18.990Z,4.03
2022-09-21T22:04:13.075Z,4.60
2022-09-21T22:09:10.797Z,1.48
2022-09-21T22:14:09.924Z,3.58
2022-09-21T22:19:08.195Z,3.17
2022-09-21T22:24:06.768Z,1.30
2022-09-21T22:29:04.974Z,1.08
2022-09-21T22:34:06.068Z,3.42
2022-09-21T22:39:01.232Z,4.82
2022-09-21T22:43:58.091Z,2.78
2022-09-21T22:48:52.971Z,1.35
2022-09-21T22:53:48.337Z,1.63
2022-09-21T22:58:56.780Z,2.92
2022-09-21T23:03:53.145Z,2.42
2022-09-21T23:08:51.125Z,1.30
2022-09-21T23:13:45.075Z,3.65
2022-09-21T23:18:40.753Z,1.30
2022-09-21T23:23:34.140Z,1.80
2022-09-21T23:28:28.548Z,1.77
2022-09-21T23:33:22.507Z,1.30
2022-09-21T23:38:16.334Z,3.88
2022-09-21T23:43:10.654Z,1.25
2022-09-21T23:48:04.494Z,1.80
2022-09-21T23:52:58.443Z,2.42
2022-09-21T23:57:52.143Z,2.70
